sensor_id;sensor_type;location;lat;lon;timestamp;P1;durP1;ratioP1;P2;durP2;ratioP2
69220;SDS011;56331;51.992;20.910;2022-09-09T00:07:03;2.58;;;1.67;;
69220;SDS011;56331;51.992;20.910;2022-09-09T00:09:45;2.80;;;1.32;;
69220;SDS011;56331;51.992;20.910;2022-09-09T00:14:50;2.02;;;1.52;;
69220;SDS011;56331;51.992;20.910;2022-09-09T00:20:11;2.75;;;1.47;;
69220;SDS011;56331;51.992;20.910;2022-09-09T00:22:57;2.55;;;1.72;;
69220;SDS011;56331;51.992;20.910;2022-09-09T00:25:34;2.27;;;1.70;;
69220;SDS011;56331;51.992;20.910;2022-09-09T00:28:04;3.65;;;1.70;;
69220;SDS011;56331;51.992;20.910;2022-09-09T00:30:34;3.20;;;1.70;;
69220;SDS011;56331;51.992;20.910;2022-09-09T00:33:01;2.77;;;1.25;;
69220;SDS011;56331;51.992;20.910;2022-09-09T00:35:38;1.82;;;1.60;;
69220;SDS011;56331;51.992;20.910;2022-09-09T00:38:11;2.75;;;1.40;;
69220;SDS011;56331;51.992;20.910;2022-09-09T00:40:55;2.25;;;1.40;;
69220;SDS011;56331;51.992;20.910;2022-09-09T00:43:29;2.67;;;1.55;;
69220;SDS011;56331;51.992;20.910;2022-09-09T01:03:35;2.42;;;1.50;;
69220;SDS011;56331;51.992;20.910;2022-09-09T01:08:43;2.92;;;1.67;;
69220;SDS011;56331;51.992;20.910;2022-09-09T01:28:16;2.20;;;1.40;;
69220;SDS011;56331;51.992;20.910;2022-09-09T01:30:46;2.70;;;1.55;;
69220;SDS011;56331;51.992;20.910;2022-09-09T01:33:14;2.52;;;1.42;;
69220;SDS011;56331;51.992;20.910;2022-09-09T01:35:50;2.50;;;1.47;;
69220;SDS011;56331;51.992;20.910;2022-09-09T01:38:23;2.37;;;1.40;;
69220;SDS011;56331;51.992;20.910;2022-09-09T01:40:51;2.22;;;1.67;;
69220;SDS011;56331;51.992;20.910;2022-09-09T01:43:21;2.27;;;1.60;;
69220;SDS011;56331;51.992;20.910;2022-09-09T01:45:51;2.15;;;1.47;;
69220;SDS011;56331;51.992;20.910;2022-09-09T01:48:24;2.83;;;1.70;;
69220;SDS011;56331;51.992;20.910;2022-09-09T01:50:52;2.87;;;1.45;;
69220;SDS011;56331;51.992;20.910;2022-09-09T01:53:21;2.22;;;1.52;;
69220;SDS011;56331;51.992;20.910;2022-09-09T02:01:15;3.33;;;1.62;;
69220;SDS011;56331;51.992;20.910;2022-09-09T02:03:44;2.72;;;1.87;;
69220;SDS011;56331;51.992;20.910;2022-09-09T02:06:26;2.33;;;1.50;;
69220;SDS011;56331;51.992;20.910;2022-09-09T02:08:59;3.40;;;1.62;;
69220;SDS011;56331;51.992;20.910;2022-09-09T02:14:00;1.72;;;1.30;;
69220;SDS011;56331;51.992;20.910;2022-09-09T02:21:43;3.47;;;1.70;;
69220;SDS011;56331;51.992;20.910;2022-09-09T02:24:12;1.80;;;1.42;;
69220;SDS011;56331;51.992;20.910;2022-09-09T02:26:42;3.02;;;1.87;;
69220;SDS011;56331;51.992;20.910;2022-09-09T02:31:46;3.75;;;2.00;;
69220;SDS011;56331;51.992;20.910;2022-09-09T02:34:15;3.55;;;2.25;;
69220;SDS011;56331;51.992;20.910;2022-09-09T02:36:45;2.58;;;1.80;;
69220;SDS011;56331;51.992;20.910;2022-09-09T02:39:12;2.12;;;1.67;;
69220;SDS011;56331;51.992;20.910;2022-09-09T02:41:40;2.80;;;1.87;;
69220;SDS011;56331;51.992;20.910;2022-09-09T02:44:14;3.42;;;2.37;;
69220;SDS011;56331;51.992;20.910;2022-09-09T02:52:36;3.25;;;1.85;;
69220;SDS011;56331;51.992;20.910;2022-09-09T02:55:12;2.70;;;2.12;;
69220;SDS011;56331;51.992;20.910;2022-09-09T02:57:39;2.72;;;2.10;;
69220;SDS011;56331;51.992;20.910;2022-09-09T03:00:07;4.72;;;2.22;;
69220;SDS011;56331;51.992;20.910;2022-09-09T03:02:35;3.40;;;2.10;;
69220;SDS011;56331;51.992;20.910;2022-09-09T03:05:02;3.60;;;2.08;;
69220;SDS011;56331;51.992;20.910;2022-09-09T03:07:29;2.02;;;1.72;;
69220;SDS011;56331;51.992;20.910;2022-09-09T03:09:55;2.87;;;2.17;;
69220;SDS011;56331;51.992;20.910;2022-09-09T03:12:22;3.25;;;2.10;;
69220;SDS011;56331;51.992;20.910;2022-09-09T03:14:48;3.00;;;1.80;;
69220;SDS011;56331;51.992;20.910;2022-09-09T03:17:15;3.02;;;1.95;;
69220;SDS011;56331;51.992;20.910;2022-09-09T03:19:42;3.30;;;1.90;;
69220;SDS011;56331;51.992;20.910;2022-09-09T03:22:09;2.40;;;1.90;;
69220;SDS011;56331;51.992;20.910;2022-09-09T03:24:37;2.98;;;2.17;;
69220;SDS011;56331;51.992;20.910;2022-09-09T03:27:03;2.55;;;2.02;;
69220;SDS011;56331;51.992;20.910;2022-09-09T03:29:30;3.00;;;2.15;;
69220;SDS011;56331;51.992;20.910;2022-09-09T03:31:57;3.42;;;2.22;;
69220;SDS011;56331;51.992;20.910;2022-09-09T03:34:24;4.15;;;2.08;;
69220;SDS011;56331;51.992;20.910;2022-09-09T03:36:50;3.58;;;2.30;;
69220;SDS011;56331;51.992;20.910;2022-09-09T03:39:17;2.98;;;2.12;;
69220;SDS011;56331;51.992;20.910;2022-09-09T03:41:44;3.37;;;2.00;;
69220;SDS011;56331;51.992;20.910;2022-09-09T03:44:13;2.65;;;1.90;;
69220;SDS011;56331;51.992;20.910;2022-09-09T03:46:40;2.70;;;1.87;;
69220;SDS011;56331;51.992;20.910;2022-09-09T03:49:06;3.27;;;2.25;;
69220;SDS011;56331;51.992;20.910;2022-09-09T03:51:33;2.83;;;1.82;;
69220;SDS011;56331;51.992;20.910;2022-09-09T03:54:02;2.83;;;2.10;;
69220;SDS011;56331;51.992;20.910;2022-09-09T03:56:30;2.98;;;2.02;;
69220;SDS011;56331;51.992;20.910;2022-09-09T03:58:58;2.62;;;1.87;;
69220;SDS011;56331;51.992;20.910;2022-09-09T04:01:24;3.35;;;1.90;;
69220;SDS011;56331;51.992;20.910;2022-09-09T04:03:50;2.72;;;1.87;;
69220;SDS011;56331;51.992;20.910;2022-09-09T04:06:19;3.45;;;1.75;;
69220;SDS011;56331;51.992;20.910;2022-09-09T04:08:47;3.02;;;1.92;;
69220;SDS011;56331;51.992;20.910;2022-09-09T04:11:16;3.58;;;2.35;;
69220;SDS011;56331;51.992;20.910;2022-09-09T04:13:43;3.08;;;2.10;;
69220;SDS011;56331;51.992;20.910;2022-09-09T04:16:12;2.95;;;2.10;;
69220;SDS011;56331;51.992;20.910;2022-09-09T04:18:39;1.70;;;1.40;;
69220;SDS011;56331;51.992;20.910;2022-09-09T04:21:08;3.30;;;2.08;;
69220;SDS011;56331;51.992;20.910;2022-09-09T04:23:36;2.45;;;1.65;;
69220;SDS011;56331;51.992;20.910;2022-09-09T04:26:03;3.33;;;1.77;;
69220;SDS011;56331;51.992;20.910;2022-09-09T04:28:30;2.70;;;2.10;;
69220;SDS011;56331;51.992;20.910;2022-09-09T04:31:08;3.13;;;1.93;;
69220;SDS011;56331;51.992;20.910;2022-09-09T04:33:43;2.80;;;2.00;;
69220;SDS011;56331;51.992;20.910;2022-09-09T04:36:10;2.35;;;1.70;;
69220;SDS011;56331;51.992;20.910;2022-09-09T04:38:37;2.70;;;1.87;;
69220;SDS011;56331;51.992;20.910;2022-09-09T04:41:03;2.37;;;1.67;;
69220;SDS011;56331;51.992;20.910;2022-09-09T04:43:30;3.15;;;2.00;;
69220;SDS011;56331;51.992;20.910;2022-09-09T04:45:58;2.77;;;1.80;;
69220;SDS011;56331;51.992;20.910;2022-09-09T04:48:25;2.33;;;1.70;;
69220;SDS011;56331;51.992;20.910;2022-09-09T04:50:58;2.67;;;1.90;;
69220;SDS011;56331;51.992;20.910;2022-09-09T04:53:27;2.50;;;1.75;;
69220;SDS011;56331;51.992;20.910;2022-09-09T04:58:36;2.60;;;1.80;;
69220;SDS011;56331;51.992;20.910;2022-09-09T05:01:06;2.90;;;1.80;;
69220;SDS011;56331;51.992;20.910;2022-09-09T05:03:35;2.40;;;1.82;;
69220;SDS011;56331;51.992;20.910;2022-09-09T05:06:02;2.15;;;1.62;;
69220;SDS011;56331;51.992;20.910;2022-09-09T05:08:34;2.55;;;1.90;;
69220;SDS011;56331;51.992;20.910;2022-09-09T05:11:02;2.33;;;1.82;;
69220;SDS011;56331;51.992;20.910;2022-09-09T05:13:29;2.60;;;1.62;;
69220;SDS011;56331;51.992;20.910;2022-09-09T05:15:57;2.05;;;1.35;;
69220;SDS011;56331;51.992;20.910;2022-09-09T05:18:24;1.87;;;1.37;;
69220;SDS011;56331;51.992;20.910;2022-09-09T05:20:51;3.00;;;1.80;;
69220;SDS011;56331;51.992;20.910;2022-09-09T05:23:17;2.58;;;2.00;;
69220;SDS011;56331;51.992;20.910;2022-09-09T05:25:52;2.22;;;1.65;;
69220;SDS011;56331;51.992;20.910;2022-09-09T05:28:14;2.37;;;1.60;;
69220;SDS011;56331;51.992;20.910;2022-09-09T05:30:41;2.00;;;1.60;;
69220;SDS011;56331;51.992;20.910;2022-09-09T05:33:07;2.98;;;2.00;;
69220;SDS011;56331;51.992;20.910;2022-09-09T05:35:35;2.58;;;1.80;;
69220;SDS011;56331;51.992;20.910;2022-09-09T05:38:01;2.42;;;1.75;;
69220;SDS011;56331;51.992;20.910;2022-09-09T05:40:29;3.58;;;1.80;;
69220;SDS011;56331;51.992;20.910;2022-09-09T05:42:59;2.67;;;1.90;;
69220;SDS011;56331;51.992;20.910;2022-09-09T05:45:27;3.25;;;1.70;;
69220;SDS011;56331;51.992;20.910;2022-09-09T05:47:53;2.75;;;1.82;;
69220;SDS011;56331;51.992;20.910;2022-09-09T05:50:20;2.85;;;1.72;;
69220;SDS011;56331;51.992;20.910;2022-09-09T05:52:47;4.37;;;2.42;;
69220;SDS011;56331;51.992;20.910;2022-09-09T05:55:15;2.75;;;1.70;;
69220;SDS011;56331;51.992;20.910;2022-09-09T05:57:42;3.45;;;2.22;;
69220;SDS011;56331;51.992;20.910;2022-09-09T06:00:11;4.28;;;2.30;;
69220;SDS011;56331;51.992;20.910;2022-09-09T06:02:41;3.85;;;2.27;;
69220;SDS011;56331;51.992;20.910;2022-09-09T06:05:08;3.65;;;2.00;;
69220;SDS011;56331;51.992;20.910;2022-09-09T06:07:37;3.05;;;2.02;;
69220;SDS011;56331;51.992;20.910;2022-09-09T06:10:04;3.62;;;2.00;;
69220;SDS011;56331;51.992;20.910;2022-09-09T06:12:31;3.00;;;2.10;;
69220;SDS011;56331;51.992;20.910;2022-09-09T06:14:58;3.83;;;2.42;;
69220;SDS011;56331;51.992;20.910;2022-09-09T06:17:26;3.22;;;1.92;;
69220;SDS011;56331;51.992;20.910;2022-09-09T06:19:54;3.12;;;2.22;;
69220;SDS011;56331;51.992;20.910;2022-09-09T06:22:21;3.65;;;2.20;;
69220;SDS011;56331;51.992;20.910;2022-09-09T06:24:47;3.40;;;2.40;;
69220;SDS011;56331;51.992;20.910;2022-09-09T06:27:15;3.70;;;2.30;;
69220;SDS011;56331;51.992;20.910;2022-09-09T06:29:41;3.22;;;2.10;;
69220;SDS011;56331;51.992;20.910;2022-09-09T06:32:09;2.47;;;2.15;;
69220;SDS011;56331;51.992;20.910;2022-09-09T06:34:36;7.05;;;2.30;;
69220;SDS011;56331;51.992;20.910;2022-09-09T06:37:04;3.05;;;2.17;;
69220;SDS011;56331;51.992;20.910;2022-09-09T06:39:32;5.67;;;2.20;;
69220;SDS011;56331;51.992;20.910;2022-09-09T06:41:59;6.87;;;2.40;;
69220;SDS011;56331;51.992;20.910;2022-09-09T06:44:26;2.83;;;2.10;;
69220;SDS011;56331;51.992;20.910;2022-09-09T06:46:59;3.85;;;2.65;;
69220;SDS011;56331;51.992;20.910;2022-09-09T06:49:26;4.92;;;2.40;;
69220;SDS011;56331;51.992;20.910;2022-09-09T06:51:52;3.55;;;2.20;;
69220;SDS011;56331;51.992;20.910;2022-09-09T06:54:21;6.30;;;2.40;;
69220;SDS011;56331;51.992;20.910;2022-09-09T06:56:53;2.90;;;2.30;;
69220;SDS011;56331;51.992;20.910;2022-09-09T06:59:20;4.08;;;2.33;;
69220;SDS011;56331;51.992;20.910;2022-09-09T07:01:49;3.90;;;2.40;;
69220;SDS011;56331;51.992;20.910;2022-09-09T07:04:19;3.40;;;2.42;;
69220;SDS011;56331;51.992;20.910;2022-09-09T07:06:46;3.67;;;2.25;;
69220;SDS011;56331;51.992;20.910;2022-09-09T07:09:22;3.72;;;2.70;;
69220;SDS011;56331;51.992;20.910;2022-09-09T07:11:50;5.92;;;2.50;;
69220;SDS011;56331;51.992;20.910;2022-09-09T07:14:18;6.67;;;2.75;;
69220;SDS011;56331;51.992;20.910;2022-09-09T07:16:46;5.92;;;2.45;;
69220;SDS011;56331;51.992;20.910;2022-09-09T07:19:13;3.62;;;2.60;;
69220;SDS011;56331;51.992;20.910;2022-09-09T07:21:53;3.95;;;2.30;;
69220;SDS011;56331;51.992;20.910;2022-09-09T07:24:21;7.25;;;5.08;;
69220;SDS011;56331;51.992;20.910;2022-09-09T07:26:51;8.98;;;6.47;;
69220;SDS011;56331;51.992;20.910;2022-09-09T07:29:24;11.05;;;7.72;;
69220;SDS011;56331;51.992;20.910;2022-09-09T07:31:51;12.18;;;6.90;;
69220;SDS011;56331;51.992;20.910;2022-09-09T07:34:24;12.37;;;6.78;;
69220;SDS011;56331;51.992;20.910;2022-09-09T07:36:53;8.23;;;5.83;;
69220;SDS011;56331;51.992;20.910;2022-09-09T07:39:20;8.03;;;5.75;;
69220;SDS011;56331;51.992;20.910;2022-09-09T07:41:51;8.43;;;5.85;;
69220;SDS011;56331;51.992;20.910;2022-09-09T07:44:21;9.00;;;5.60;;
69220;SDS011;56331;51.992;20.910;2022-09-09T07:46:53;8.45;;;5.67;;
69220;SDS011;56331;51.992;20.910;2022-09-09T07:49:19;7.65;;;5.25;;
69220;SDS011;56331;51.992;20.910;2022-09-09T07:51:48;8.28;;;5.08;;
69220;SDS011;56331;51.992;20.910;2022-09-09T07:54:16;9.75;;;4.85;;
69220;SDS011;56331;51.992;20.910;2022-09-09T08:14:45;6.33;;;4.65;;
69220;SDS011;56331;51.992;20.910;2022-09-09T08:17:25;5.92;;;4.62;;
69220;SDS011;56331;51.992;20.910;2022-09-09T08:19:53;6.65;;;4.83;;
69220;SDS011;56331;51.992;20.910;2022-09-09T08:22:22;7.77;;;4.53;;
69220;SDS011;56331;51.992;20.910;2022-09-09T08:24:50;7.62;;;4.15;;
69220;SDS011;56331;51.992;20.910;2022-09-09T08:27:19;6.45;;;4.47;;
69220;SDS011;56331;51.992;20.910;2022-09-09T08:29:46;6.12;;;4.28;;
69220;SDS011;56331;51.992;20.910;2022-09-09T08:32:13;6.25;;;3.92;;
69220;SDS011;56331;51.992;20.910;2022-09-09T08:34:44;5.83;;;3.85;;
69220;SDS011;56331;51.992;20.910;2022-09-09T08:37:11;6.55;;;3.60;;
69220;SDS011;56331;51.992;20.910;2022-09-09T08:39:49;5.72;;;4.33;;
69220;SDS011;56331;51.992;20.910;2022-09-09T08:50:36;7.17;;;3.90;;
69220;SDS011;56331;51.992;20.910;2022-09-09T08:55:52;6.15;;;4.00;;
69220;SDS011;56331;51.992;20.910;2022-09-09T08:58:25;17.85;;;10.50;;
69220;SDS011;56331;51.992;20.910;2022-09-09T09:12:18;9.85;;;6.78;;
69220;SDS011;56331;51.992;20.910;2022-09-09T09:14:50;10.80;;;6.28;;
69220;SDS011;56331;51.992;20.910;2022-09-09T09:17:19;9.93;;;6.03;;
69220;SDS011;56331;51.992;20.910;2022-09-09T09:19:49;9.28;;;6.03;;
69220;SDS011;56331;51.992;20.910;2022-09-09T09:22:26;10.30;;;6.37;;
69220;SDS011;56331;51.992;20.910;2022-09-09T09:25:09;9.10;;;5.58;;
69220;SDS011;56331;51.992;20.910;2022-09-09T09:27:46;9.08;;;6.10;;
69220;SDS011;56331;51.992;20.910;2022-09-09T09:30:41;8.88;;;5.22;;
69220;SDS011;56331;51.992;20.910;2022-09-09T09:36:12;9.43;;;6.28;;
69220;SDS011;56331;51.992;20.910;2022-09-09T09:38:55;8.63;;;4.72;;
69220;SDS011;56331;51.992;20.910;2022-09-09T09:41:36;6.45;;;4.80;;
69220;SDS011;56331;51.992;20.910;2022-09-09T09:44:25;8.03;;;4.78;;
69220;SDS011;56331;51.992;20.910;2022-09-09T09:47:07;6.40;;;4.60;;
69220;SDS011;56331;51.992;20.910;2022-09-09T09:49:52;6.10;;;4.40;;
69220;SDS011;56331;51.992;20.910;2022-09-09T09:52:34;18.25;;;10.82;;
69220;SDS011;56331;51.992;20.910;2022-09-09T09:55:15;21.48;;;12.47;;
69220;SDS011;56331;51.992;20.910;2022-09-09T09:57:52;10.05;;;7.12;;
69220;SDS011;56331;51.992;20.910;2022-09-09T10:00:35;8.63;;;5.75;;
69220;SDS011;56331;51.992;20.910;2022-09-09T10:03:26;10.30;;;6.25;;
69220;SDS011;56331;51.992;20.910;2022-09-09T10:06:07;9.20;;;5.58;;
69220;SDS011;56331;51.992;20.910;2022-09-09T10:08:48;7.87;;;5.50;;
69220;SDS011;56331;51.992;20.910;2022-09-09T10:11:30;7.45;;;5.05;;
69220;SDS011;56331;51.992;20.910;2022-09-09T10:19:57;7.83;;;5.10;;
69220;SDS011;56331;51.992;20.910;2022-09-09T10:22:28;7.60;;;5.12;;
69220;SDS011;56331;51.992;20.910;2022-09-09T10:36:52;15.20;;;9.90;;
69220;SDS011;56331;51.992;20.910;2022-09-09T10:39:35;8.55;;;5.60;;
69220;SDS011;56331;51.992;20.910;2022-09-09T10:42:08;7.70;;;5.17;;
69220;SDS011;56331;51.992;20.910;2022-09-09T10:47:47;6.37;;;4.75;;
69220;SDS011;56331;51.992;20.910;2022-09-09T10:56:13;6.30;;;4.42;;
69220;SDS011;56331;51.992;20.910;2022-09-09T11:01:25;6.30;;;4.62;;
69220;SDS011;56331;51.992;20.910;2022-09-09T11:07:14;4.85;;;3.90;;
69220;SDS011;56331;51.992;20.910;2022-09-09T11:09:53;8.43;;;5.22;;
69220;SDS011;56331;51.992;20.910;2022-09-09T11:12:22;7.58;;;4.72;;
69220;SDS011;56331;51.992;20.910;2022-09-09T11:15:17;6.28;;;4.80;;
69220;SDS011;56331;51.992;20.910;2022-09-09T11:20:28;7.12;;;4.60;;
69220;SDS011;56331;51.992;20.910;2022-09-09T11:23:04;4.85;;;4.05;;
69220;SDS011;56331;51.992;20.910;2022-09-09T11:25:36;6.25;;;4.58;;
69220;SDS011;56331;51.992;20.910;2022-09-09T11:34:19;6.60;;;4.58;;
69220;SDS011;56331;51.992;20.910;2022-09-09T11:42:45;7.15;;;4.25;;
69220;SDS011;56331;51.992;20.910;2022-09-09T11:45:34;7.05;;;4.42;;
69220;SDS011;56331;51.992;20.910;2022-09-09T11:48:22;6.83;;;4.87;;
69220;SDS011;56331;51.992;20.910;2022-09-09T11:57:35;7.90;;;5.65;;
69220;SDS011;56331;51.992;20.910;2022-09-09T12:00:27;8.18;;;5.90;;
69220;SDS011;56331;51.992;20.910;2022-09-09T12:05:42;10.18;;;7.25;;
69220;SDS011;56331;51.992;20.910;2022-09-09T12:08:16;10.05;;;6.67;;
69220;SDS011;56331;51.992;20.910;2022-09-09T12:10:54;8.95;;;6.40;;
69220;SDS011;56331;51.992;20.910;2022-09-09T12:13:51;13.10;;;7.47;;
69220;SDS011;56331;51.992;20.910;2022-09-09T12:16:28;10.45;;;7.00;;
69220;SDS011;56331;51.992;20.910;2022-09-09T12:19:06;9.58;;;6.35;;
69220;SDS011;56331;51.992;20.910;2022-09-09T12:21:39;9.58;;;6.80;;
69220;SDS011;56331;51.992;20.910;2022-09-09T12:24:17;9.53;;;6.70;;
69220;SDS011;56331;51.992;20.910;2022-09-09T12:32:26;10.63;;;6.80;;
69220;SDS011;56331;51.992;20.910;2022-09-09T12:35:00;7.22;;;6.03;;
69220;SDS011;56331;51.992;20.910;2022-09-09T12:37:53;8.08;;;6.28;;
69220;SDS011;56331;51.992;20.910;2022-09-09T12:40:29;9.93;;;6.75;;
69220;SDS011;56331;51.992;20.910;2022-09-09T12:43:19;8.55;;;6.28;;
69220;SDS011;56331;51.992;20.910;2022-09-09T12:51:07;9.83;;;6.33;;
69220;SDS011;56331;51.992;20.910;2022-09-09T12:53:57;9.38;;;6.58;;
69220;SDS011;56331;51.992;20.910;2022-09-09T12:56:46;8.43;;;6.10;;
69220;SDS011;56331;51.992;20.910;2022-09-09T12:59:23;7.90;;;5.85;;
69220;SDS011;56331;51.992;20.910;2022-09-09T13:04:49;9.53;;;6.40;;
69220;SDS011;56331;51.992;20.910;2022-09-09T13:07:17;8.88;;;6.33;;
69220;SDS011;56331;51.992;20.910;2022-09-09T13:09:48;8.98;;;6.12;;
69220;SDS011;56331;51.992;20.910;2022-09-09T13:12:21;9.58;;;6.15;;
69220;SDS011;56331;51.992;20.910;2022-09-09T13:14:51;9.73;;;6.17;;
69220;SDS011;56331;51.992;20.910;2022-09-09T13:17:25;7.17;;;5.35;;
69220;SDS011;56331;51.992;20.910;2022-09-09T13:19:57;8.08;;;5.80;;
69220;SDS011;56331;51.992;20.910;2022-09-09T13:22:43;9.53;;;5.65;;
69220;SDS011;56331;51.992;20.910;2022-09-09T13:25:20;8.25;;;5.87;;
69220;SDS011;56331;51.992;20.910;2022-09-09T13:28:02;8.73;;;5.75;;
69220;SDS011;56331;51.992;20.910;2022-09-09T13:30:35;9.23;;;6.20;;
69220;SDS011;56331;51.992;20.910;2022-09-09T13:36:04;8.43;;;6.08;;
69220;SDS011;56331;51.992;20.910;2022-09-09T13:38:40;7.83;;;5.55;;
69220;SDS011;56331;51.992;20.910;2022-09-09T13:41:10;10.23;;;5.62;;
69220;SDS011;56331;51.992;20.910;2022-09-09T13:43:44;9.55;;;6.17;;
69220;SDS011;56331;51.992;20.910;2022-09-09T13:46:35;7.42;;;5.50;;
69220;SDS011;56331;51.992;20.910;2022-09-09T13:51:42;7.22;;;5.40;;
69220;SDS011;56331;51.992;20.910;2022-09-09T13:54:22;7.28;;;5.42;;
69220;SDS011;56331;51.992;20.910;2022-09-09T13:56:50;8.43;;;5.75;;
69220;SDS011;56331;51.992;20.910;2022-09-09T13:59:19;7.33;;;5.75;;
69220;SDS011;56331;51.992;20.910;2022-09-09T14:04:27;9.10;;;5.78;;
69220;SDS011;56331;51.992;20.910;2022-09-09T14:06:57;7.70;;;5.65;;
69220;SDS011;56331;51.992;20.910;2022-09-09T14:09:45;8.08;;;5.33;;
69220;SDS011;56331;51.992;20.910;2022-09-09T14:12:17;8.43;;;5.45;;
69220;SDS011;56331;51.992;20.910;2022-09-09T14:18:04;7.72;;;4.95;;
69220;SDS011;56331;51.992;20.910;2022-09-09T14:20:44;7.92;;;5.50;;
69220;SDS011;56331;51.992;20.910;2022-09-09T14:25:43;8.00;;;5.20;;
69220;SDS011;56331;51.992;20.910;2022-09-09T14:28:12;8.65;;;5.30;;
69220;SDS011;56331;51.992;20.910;2022-09-09T14:33:29;7.47;;;5.50;;
69220;SDS011;56331;51.992;20.910;2022-09-09T14:36:14;28.52;;;14.50;;
69220;SDS011;56331;51.992;20.910;2022-09-09T14:38:43;29.70;;;16.57;;
69220;SDS011;56331;51.992;20.910;2022-09-09T14:41:30;32.17;;;17.48;;
69220;SDS011;56331;51.992;20.910;2022-09-09T14:44:10;31.10;;;16.10;;
69220;SDS011;56331;51.992;20.910;2022-09-09T14:46:40;27.90;;;14.98;;
69220;SDS011;56331;51.992;20.910;2022-09-09T14:49:08;26.65;;;14.18;;
69220;SDS011;56331;51.992;20.910;2022-09-09T14:51:36;24.18;;;13.60;;
69220;SDS011;56331;51.992;20.910;2022-09-09T14:54:03;19.77;;;12.20;;
69220;SDS011;56331;51.992;20.910;2022-09-09T14:56:30;14.98;;;9.75;;
69220;SDS011;56331;51.992;20.910;2022-09-09T14:59:00;17.65;;;7.97;;
69220;SDS011;56331;51.992;20.910;2022-09-09T15:01:27;11.10;;;7.20;;
69220;SDS011;56331;51.992;20.910;2022-09-09T15:03:56;10.48;;;6.92;;
69220;SDS011;56331;51.992;20.910;2022-09-09T15:06:28;11.45;;;6.92;;
69220;SDS011;56331;51.992;20.910;2022-09-09T15:08:56;11.53;;;6.90;;
69220;SDS011;56331;51.992;20.910;2022-09-09T15:13:54;24.95;;;13.78;;
69220;SDS011;56331;51.992;20.910;2022-09-09T15:16:23;26.62;;;15.48;;
69220;SDS011;56331;51.992;20.910;2022-09-09T15:21:19;22.77;;;12.63;;
69220;SDS011;56331;51.992;20.910;2022-09-09T15:23:48;19.98;;;11.53;;
69220;SDS011;56331;51.992;20.910;2022-09-09T15:26:15;16.23;;;9.88;;
69220;SDS011;56331;51.992;20.910;2022-09-09T15:28:43;13.58;;;7.62;;
69220;SDS011;56331;51.992;20.910;2022-09-09T15:31:14;12.82;;;7.58;;
69220;SDS011;56331;51.992;20.910;2022-09-09T15:36:33;11.88;;;6.60;;
69220;SDS011;56331;51.992;20.910;2022-09-09T15:39:06;11.83;;;6.62;;
69220;SDS011;56331;51.992;20.910;2022-09-09T15:41:36;11.75;;;6.70;;
69220;SDS011;56331;51.992;20.910;2022-09-09T15:44:03;12.73;;;6.45;;
69220;SDS011;56331;51.992;20.910;2022-09-09T15:49:10;12.63;;;5.80;;
69220;SDS011;56331;51.992;20.910;2022-09-09T15:51:56;8.90;;;5.67;;
69220;SDS011;56331;51.992;20.910;2022-09-09T15:54:24;10.00;;;6.50;;
69220;SDS011;56331;51.992;20.910;2022-09-09T15:56:53;7.60;;;5.12;;
69220;SDS011;56331;51.992;20.910;2022-09-09T15:59:24;13.83;;;6.40;;
69220;SDS011;56331;51.992;20.910;2022-09-09T16:02:04;28.40;;;6.65;;
69220;SDS011;56331;51.992;20.910;2022-09-09T16:04:31;10.53;;;5.78;;
69220;SDS011;56331;51.992;20.910;2022-09-09T16:07:00;7.40;;;5.40;;
69220;SDS011;56331;51.992;20.910;2022-09-09T16:09:29;10.85;;;5.53;;
69220;SDS011;56331;51.992;20.910;2022-09-09T16:11:57;8.10;;;5.17;;
69220;SDS011;56331;51.992;20.910;2022-09-09T16:14:26;8.53;;;5.62;;
69220;SDS011;56331;51.992;20.910;2022-09-09T16:16:53;7.25;;;5.00;;
69220;SDS011;56331;51.992;20.910;2022-09-09T16:19:19;9.43;;;5.20;;
69220;SDS011;56331;51.992;20.910;2022-09-09T16:21:46;8.58;;;5.75;;
69220;SDS011;56331;51.992;20.910;2022-09-09T16:24:16;8.58;;;5.65;;
69220;SDS011;56331;51.992;20.910;2022-09-09T16:26:45;8.63;;;5.17;;
69220;SDS011;56331;51.992;20.910;2022-09-09T16:29:13;10.05;;;5.58;;
69220;SDS011;56331;51.992;20.910;2022-09-09T16:31:41;8.35;;;5.42;;
69220;SDS011;56331;51.992;20.910;2022-09-09T16:34:08;9.53;;;5.40;;
69220;SDS011;56331;51.992;20.910;2022-09-09T16:36:37;9.83;;;5.20;;
69220;SDS011;56331;51.992;20.910;2022-09-09T16:39:06;9.45;;;5.35;;
69220;SDS011;56331;51.992;20.910;2022-09-09T16:41:35;10.60;;;5.05;;
69220;SDS011;56331;51.992;20.910;2022-09-09T16:44:04;6.90;;;5.00;;
69220;SDS011;56331;51.992;20.910;2022-09-09T16:46:33;9.10;;;5.05;;
69220;SDS011;56331;51.992;20.910;2022-09-09T16:49:02;8.75;;;4.70;;
69220;SDS011;56331;51.992;20.910;2022-09-09T16:51:31;8.00;;;5.33;;
69220;SDS011;56331;51.992;20.910;2022-09-09T16:54:00;6.62;;;5.12;;
69220;SDS011;56331;51.992;20.910;2022-09-09T16:56:29;9.13;;;5.05;;
69220;SDS011;56331;51.992;20.910;2022-09-09T16:59:00;9.88;;;5.25;;
69220;SDS011;56331;51.992;20.910;2022-09-09T17:01:29;7.15;;;5.22;;
69220;SDS011;56331;51.992;20.910;2022-09-09T17:03:59;7.47;;;5.22;;
69220;SDS011;56331;51.992;20.910;2022-09-09T17:06:30;6.83;;;5.20;;
69220;SDS011;56331;51.992;20.910;2022-09-09T17:09:01;6.00;;;4.42;;
69220;SDS011;56331;51.992;20.910;2022-09-09T17:11:29;8.18;;;5.10;;
69220;SDS011;56331;51.992;20.910;2022-09-09T17:13:56;6.47;;;5.08;;
69220;SDS011;56331;51.992;20.910;2022-09-09T17:16:28;8.08;;;5.83;;
69220;SDS011;56331;51.992;20.910;2022-09-09T17:18:57;8.30;;;4.90;;
69220;SDS011;56331;51.992;20.910;2022-09-09T17:21:27;7.97;;;5.25;;
69220;SDS011;56331;51.992;20.910;2022-09-09T17:23:55;7.75;;;4.97;;
69220;SDS011;56331;51.992;20.910;2022-09-09T17:26:24;8.18;;;5.35;;
69220;SDS011;56331;51.992;20.910;2022-09-09T17:28:53;8.15;;;5.00;;
69220;SDS011;56331;51.992;20.910;2022-09-09T17:31:21;8.35;;;4.75;;
69220;SDS011;56331;51.992;20.910;2022-09-09T17:33:49;9.45;;;4.85;;
69220;SDS011;56331;51.992;20.910;2022-09-09T17:36:19;6.12;;;4.42;;
69220;SDS011;56331;51.992;20.910;2022-09-09T17:38:48;8.25;;;4.92;;
69220;SDS011;56331;51.992;20.910;2022-09-09T17:41:16;7.33;;;4.97;;
69220;SDS011;56331;51.992;20.910;2022-09-09T17:43:46;6.47;;;4.72;;
69220;SDS011;56331;51.992;20.910;2022-09-09T17:48:47;7.03;;;4.22;;
69220;SDS011;56331;51.992;20.910;2022-09-09T17:51:28;6.05;;;4.37;;
69220;SDS011;56331;51.992;20.910;2022-09-09T17:54:00;8.28;;;4.50;;
69220;SDS011;56331;51.992;20.910;2022-09-09T17:56:29;8.08;;;4.42;;
69220;SDS011;56331;51.992;20.910;2022-09-09T18:01:26;6.25;;;4.47;;
69220;SDS011;56331;51.992;20.910;2022-09-09T18:03:56;7.47;;;4.67;;
69220;SDS011;56331;51.992;20.910;2022-09-09T18:06:27;6.92;;;4.50;;
69220;SDS011;56331;51.992;20.910;2022-09-09T18:11:25;9.75;;;4.72;;
69220;SDS011;56331;51.992;20.910;2022-09-09T18:13:55;6.45;;;4.22;;
69220;SDS011;56331;51.992;20.910;2022-09-09T18:18:53;5.72;;;4.12;;
69220;SDS011;56331;51.992;20.910;2022-09-09T18:21:20;6.47;;;4.03;;
69220;SDS011;56331;51.992;20.910;2022-09-09T18:23:49;6.22;;;4.20;;
69220;SDS011;56331;51.992;20.910;2022-09-09T18:26:18;6.55;;;4.28;;
69220;SDS011;56331;51.992;20.910;2022-09-09T18:28:48;5.80;;;4.00;;
69220;SDS011;56331;51.992;20.910;2022-09-09T18:31:18;7.58;;;4.83;;
69220;SDS011;56331;51.992;20.910;2022-09-09T18:33:48;9.00;;;4.40;;
69220;SDS011;56331;51.992;20.910;2022-09-09T18:36:19;6.00;;;3.72;;
69220;SDS011;56331;51.992;20.910;2022-09-09T18:38:48;6.67;;;3.58;;
69220;SDS011;56331;51.992;20.910;2022-09-09T18:41:20;5.67;;;4.15;;